Terminal Aerodrome Forecast
Issued by NWS

Home | Current Version | Previous Version | Text Only | Print | Product List | Glossary Off
Versions: 1 2 3 4 5 6 7 8 9 10 11 12 13 14

000
FTUS43 KBIS 221725
TAFJMS
TAF
KJMS 221725Z 2218/2318 30015KT P6SM SKC
     FM222000 33020G29KT P6SM SKC
     FM230200 34013KT P6SM SKC
     FM230500 34008KT P6SM SKC=

USA.gov is the U.S. government's official web portal to all federal, state and local government web resources and services.